CheckWX is a tool to help pilots better visualize weather data.  It is not intended as a substitute for an official pre-flight weather briefing.

12:48:37 UTC

CYYF TAF
Penticton Airport
Penticton, Canada
TAF CYYF 260638Z 2607/2619 02005KT P6SM OVC120 RMK NXT FCST BY 261300Z

Apr-26@
07:00 UTC

Apr-26 @ 07:00 UTC

Apr-26@
19:00 UTC

Apr-26 @ 19:00 UTC

TAF CYYF 260638Z 2607/2619 02005KT P6SM OVC120 RMK NXT FCST BY 261300Z
Wind
  • 020° at 5 KTS
Cloud Levels
  • Overcast at 12,000' AGL